createdAt,value
2022-10-02T00:00:13.992Z,12.31
2022-10-02T00:02:57.197Z,12.32
2022-10-02T00:05:45.451Z,12.38
2022-10-02T00:08:25.949Z,12.43
2022-10-02T00:11:44.147Z,12.47
2022-10-02T00:14:18.844Z,12.46
2022-10-02T00:16:57.138Z,12.38
2022-10-02T00:19:26.692Z,12.27
2022-10-02T00:22:21.220Z,12.21
2022-10-02T00:25:19.793Z,12.14
2022-10-02T00:28:18.239Z,12.12
2022-10-02T00:31:48.411Z,12.15
2022-10-02T00:34:52.738Z,12.12
2022-10-02T00:37:36.625Z,12.16
2022-10-02T00:40:53.491Z,12.13
2022-10-02T00:43:41.251Z,12.14
2022-10-02T00:47:11.276Z,12.06
2022-10-02T00:50:38.407Z,12.18
2022-10-02T00:53:40.835Z,12.23
2022-10-02T00:56:58.181Z,12.29
2022-10-02T01:00:13.851Z,12.30
2022-10-02T01:03:09.329Z,12.32
2022-10-02T01:05:38.257Z,12.40
2022-10-02T01:08:08.497Z,12.45
2022-10-02T01:10:40.832Z,12.59
2022-10-02T01:13:08.606Z,12.71
2022-10-02T01:15:45.205Z,12.70
2022-10-02T01:18:15.915Z,12.75
2022-10-02T01:20:50.711Z,12.63
2022-10-02T01:24:00.767Z,12.65
2022-10-02T01:26:28.373Z,12.56
2022-10-02T01:28:56.853Z,12.57
2022-10-02T01:31:25.098Z,12.55
2022-10-02T01:33:53.636Z,12.46
2022-10-02T01:36:22.657Z,12.43
2022-10-02T01:38:53.165Z,12.42
2022-10-02T01:41:20.801Z,12.39
2022-10-02T01:43:59.105Z,12.33
2022-10-02T01:46:40.119Z,12.32
2022-10-02T01:49:53.315Z,12.45
2022-10-02T01:52:43.684Z,12.40
2022-10-02T01:56:24.838Z,12.28
2022-10-02T01:59:10.773Z,12.21
2022-10-02T02:02:28.413Z,12.31
2022-10-02T02:05:37.540Z,12.23
2022-10-02T02:08:32.117Z,12.28
2022-10-02T02:11:20.421Z,12.17
2022-10-02T02:14:05.637Z,12.34
2022-10-02T02:16:50.458Z,12.29
2022-10-02T02:19:39.156Z,12.24
2022-10-02T02:22:37.651Z,12.24
2022-10-02T02:25:15.885Z,12.15
2022-10-02T02:27:52.111Z,12.14
2022-10-02T02:30:23.170Z,12.14
2022-10-02T02:33:14.747Z,12.23
2022-10-02T02:35:49.391Z,12.04
2022-10-02T02:38:38.108Z,12.08
2022-10-02T02:41:14.120Z,11.99
2022-10-02T02:44:18.709Z,12.12
2022-10-02T02:47:07.712Z,11.96
2022-10-02T02:50:17.283Z,11.84
2022-10-02T02:53:08.013Z,11.64
2022-10-02T02:55:46.202Z,11.33
2022-10-02T02:58:56.617Z,11.33
2022-10-02T03:01:24.439Z,11.41
2022-10-02T03:03:52.096Z,11.33
2022-10-02T03:06:38.060Z,11.50
2022-10-02T03:09:20.220Z,11.31
2022-10-02T03:12:05.066Z,11.55
2022-10-02T03:14:50.421Z,11.58
2022-10-02T03:17:50.323Z,11.56
2022-10-02T03:20:42.647Z,11.70
2022-10-02T03:23:54.033Z,11.85
2022-10-02T03:26:41.448Z,11.97
2022-10-02T03:29:43.988Z,11.95
2022-10-02T03:32:16.507Z,12.02
2022-10-02T03:34:45.147Z,12.19
2022-10-02T03:37:12.981Z,12.25
2022-10-02T03:39:45.479Z,12.28
2022-10-02T03:42:15.949Z,12.40
2022-10-02T03:44:44.201Z,12.37
2022-10-02T03:47:11.855Z,12.41
2022-10-02T03:49:40.003Z,12.46
2022-10-02T03:52:07.914Z,12.29
2022-10-02T03:54:36.567Z,12.34
2022-10-02T03:57:18.605Z,12.39
2022-10-02T04:00:19.816Z,12.36
2022-10-02T04:03:02.250Z,12.29
2022-10-02T04:05:42.028Z,12.26
2022-10-02T04:08:36.453Z,12.33
2022-10-02T04:11:43.656Z,12.40
2022-10-02T04:15:09.060Z,12.42
2022-10-02T04:18:11.333Z,12.51
2022-10-02T04:21:41.121Z,12.54
2022-10-02T04:24:31.532Z,12.66
2022-10-02T04:27:29.613Z,12.73
2022-10-02T04:30:07.107Z,12.75
2022-10-02T04:32:37.056Z,12.71
2022-10-02T04:35:41.437Z,12.66
2022-10-02T04:38:59.716Z,12.65
2022-10-02T04:41:36.036Z,12.57
2022-10-02T04:44:34.828Z,12.49
2022-10-02T04:47:55.508Z,12.54
2022-10-02T04:50:45.165Z,12.53
2022-10-02T04:53:55.328Z,12.40
2022-10-02T04:56:47.036Z,12.54
2022-10-02T04:59:35.893Z,12.46
2022-10-02T05:02:44.369Z,12.42
2022-10-02T05:05:32.791Z,12.49
2022-10-02T05:08:20.919Z,12.51
2022-10-02T05:11:28.930Z,12.49
2022-10-02T05:14:41.541Z,12.55
2022-10-02T05:18:08.063Z,12.51
2022-10-02T05:21:12.441Z,12.52
2022-10-02T05:24:03.026Z,12.54
2022-10-02T05:26:52.694Z,12.59
2022-10-02T05:29:58.661Z,12.55
2022-10-02T05:33:02.851Z,12.65
2022-10-02T05:35:43.092Z,12.76
2022-10-02T05:38:27.439Z,12.81
2022-10-02T05:41:31.561Z,12.90
2022-10-02T05:44:28.715Z,12.91
2022-10-02T05:47:35.682Z,12.92
2022-10-02T05:50:12.339Z,13.02
2022-10-02T05:53:25.431Z,13.05
2022-10-02T05:56:05.466Z,13.12
2022-10-02T05:58:58.572Z,13.31
2022-10-02T06:01:40.508Z,13.37
2022-10-02T06:04:44.997Z,13.64
2022-10-02T06:07:19.261Z,13.70
2022-10-02T06:09:59.142Z,13.78
2022-10-02T06:13:01.048Z,13.84
2022-10-02T06:15:55.707Z,14.13
2022-10-02T06:18:29.347Z,14.14
2022-10-02T06:21:09.743Z,14.14
2022-10-02T06:23:52.878Z,14.26
2022-10-02T06:26:51.736Z,14.33
2022-10-02T06:29:48.996Z,14.60
2022-10-02T06:32:51.737Z,14.71
2022-10-02T06:35:38.294Z,14.53
2022-10-02T06:38:42.617Z,14.78
2022-10-02T06:41:54.454Z,14.90
2022-10-02T06:45:08.600Z,14.88
2022-10-02T06:48:22.866Z,15.18
2022-10-02T06:51:09.786Z,15.56
2022-10-02T06:53:46.076Z,18.29
2022-10-02T06:57:25.712Z,19.17
2022-10-02T07:00:12.453Z,18.47
2022-10-02T07:03:19.111Z,16.82
2022-10-02T07:06:23.720Z,16.37
2022-10-02T07:09:44.106Z,16.25
2022-10-02T07:12:30.398Z,16.40
2022-10-02T07:15:26.234Z,16.02
2022-10-02T07:18:52.434Z,16.44
2022-10-02T07:21:23.778Z,16.61
2022-10-02T07:24:12.129Z,16.53
2022-10-02T07:26:48.236Z,16.50
2022-10-02T07:29:33.800Z,16.77
2022-10-02T07:32:38.395Z,17.16
2022-10-02T07:35:49.561Z,16.83
2022-10-02T07:39:35.869Z,17.32
2022-10-02T07:42:55.294Z,17.23
2022-10-02T07:45:30.280Z,17.04
2022-10-02T07:48:01.472Z,17.12
2022-10-02T07:50:46.758Z,17.38
2022-10-02T07:53:41.119Z,17.22
2022-10-02T07:56:20.139Z,17.44
2022-10-02T07:59:00.207Z,17.44
2022-10-02T08:01:36.603Z,17.28
2022-10-02T08:04:18.979Z,16.95
2022-10-02T08:06:59.816Z,17.28
2022-10-02T08:09:52.066Z,17.51
2022-10-02T08:12:52.790Z,17.49
2022-10-02T08:15:23.531Z,17.77
2022-10-02T08:18:22.812Z,17.88
2022-10-02T08:20:53.553Z,17.73
2022-10-02T08:23:28.193Z,17.82
2022-10-02T08:26:35.787Z,17.55
2022-10-02T08:29:46.760Z,18.02
2022-10-02T08:32:15.749Z,17.84
2022-10-02T08:34:44.298Z,17.65
2022-10-02T08:38:01.628Z,17.76
2022-10-02T08:41:37.399Z,17.59
2022-10-02T08:44:36.126Z,17.46
2022-10-02T08:47:28.945Z,17.94
2022-10-02T08:51:30.321Z,17.96
2022-10-02T08:55:00.154Z,17.79
2022-10-02T08:58:03.616Z,17.72
2022-10-02T09:00:44.728Z,17.92
2022-10-02T09:04:09.290Z,17.80
2022-10-02T09:07:24.829Z,17.83
2022-10-02T09:10:30.716Z,17.99
2022-10-02T09:13:47.104Z,18.18
2022-10-02T09:17:14.613Z,18.08
2022-10-02T09:20:05.471Z,17.72
2022-10-02T09:23:13.830Z,18.06
2022-10-02T09:26:32.143Z,18.13
2022-10-02T09:29:56.287Z,18.19
2022-10-02T09:32:45.340Z,18.33
2022-10-02T09:36:24.950Z,18.49
2022-10-02T09:39:47.570Z,18.18
2022-10-02T09:43:24.234Z,18.28
2022-10-02T09:46:26.969Z,17.95
2022-10-02T09:49:42.618Z,18.19
2022-10-02T09:52:42.771Z,18.35
2022-10-02T09:56:32.319Z,18.18
2022-10-02T09:59:46.395Z,17.91
2022-10-02T10:02:48.296Z,18.24
2022-10-02T10:05:48.221Z,18.02
2022-10-02T10:09:01.503Z,18.40
2022-10-02T10:12:00.139Z,18.02
2022-10-02T10:14:52.028Z,18.02
2022-10-02T10:18:20.156Z,18.10
2022-10-02T10:21:30.733Z,17.75
2022-10-02T10:24:34.253Z,18.02
2022-10-02T10:28:06.004Z,17.92
2022-10-02T10:31:02.270Z,18.13
2022-10-02T10:34:37.981Z,18.11
2022-10-02T10:37:56.752Z,18.46
2022-10-02T10:41:01.396Z,18.10
2022-10-02T10:44:04.840Z,18.01
2022-10-02T10:47:20.254Z,18.26
2022-10-02T10:50:35.906Z,18.63
2022-10-02T10:54:02.152Z,18.62
2022-10-02T10:56:49.370Z,18.35
2022-10-02T11:00:16.331Z,17.82
2022-10-02T11:03:49.578Z,17.55
2022-10-02T11:07:08.111Z,17.72
2022-10-02T11:10:31.389Z,17.60
2022-10-02T11:13:42.747Z,17.68
2022-10-02T11:16:54.436Z,17.99
2022-10-02T11:20:18.318Z,17.94
2022-10-02T11:23:39.946Z,17.74
2022-10-02T11:26:43.907Z,17.86
2022-10-02T11:29:31.117Z,17.97
2022-10-02T11:32:45.053Z,17.74
2022-10-02T11:35:37.631Z,17.93
2022-10-02T11:38:38.856Z,17.77
2022-10-02T11:41:43.884Z,17.65
2022-10-02T11:44:24.850Z,17.91
2022-10-02T11:47:29.975Z,17.82
2022-10-02T11:50:45.969Z,17.93
2022-10-02T11:53:26.274Z,17.96
2022-10-02T11:56:14.429Z,17.76
2022-10-02T12:00:05.573Z,17.72
2022-10-02T12:03:03.540Z,17.68
2022-10-02T12:06:04.606Z,17.63
2022-10-02T12:08:53.923Z,18.01
2022-10-02T12:12:08.450Z,18.47
2022-10-02T12:15:16.821Z,17.99
2022-10-02T12:18:22.015Z,18.16
2022-10-02T12:21:48.454Z,18.25
2022-10-02T12:24:41.251Z,18.37
2022-10-02T12:27:36.963Z,18.54
2022-10-02T12:30:36.385Z,18.75
2022-10-02T12:33:51.817Z,18.69
2022-10-02T12:36:56.718Z,19.05
2022-10-02T12:39:57.473Z,18.48
2022-10-02T12:43:10.524Z,18.74
2022-10-02T12:46:13.711Z,18.61
2022-10-02T12:49:28.573Z,18.59
2022-10-02T12:52:50.884Z,18.46
2022-10-02T12:56:08.311Z,18.53
2022-10-02T12:59:22.226Z,18.43
2022-10-02T13:02:56.266Z,18.69
2022-10-02T13:06:33.967Z,18.99
2022-10-02T13:09:29.981Z,18.70
2022-10-02T13:12:20.236Z,18.73
2022-10-02T13:15:06.527Z,18.60
2022-10-02T13:18:04.038Z,18.64
2022-10-02T13:20:56.482Z,18.54
2022-10-02T13:23:32.176Z,18.32
2022-10-02T13:26:41.326Z,18.08
2022-10-02T13:29:53.236Z,17.89
2022-10-02T13:32:52.582Z,17.93
2022-10-02T13:36:07.068Z,17.81
2022-10-02T13:39:21.668Z,17.76
2022-10-02T13:42:14.892Z,17.66
2022-10-02T13:45:33.531Z,17.78
2022-10-02T13:48:55.168Z,17.84
2022-10-02T13:52:08.113Z,17.69
2022-10-02T13:55:29.211Z,17.69
2022-10-02T13:58:30.185Z,17.73
2022-10-02T14:01:57.681Z,17.41
2022-10-02T14:04:47.538Z,17.33
2022-10-02T14:07:46.864Z,17.27
2022-10-02T14:10:47.482Z,17.28
2022-10-02T14:14:07.350Z,17.15
2022-10-02T14:16:56.457Z,16.92
2022-10-02T14:19:52.862Z,17.07
2022-10-02T14:22:52.032Z,17.18
2022-10-02T14:25:50.752Z,17.19
2022-10-02T14:29:09.622Z,17.38
2022-10-02T14:32:33.574Z,17.48
2022-10-02T14:35:43.600Z,17.13
2022-10-02T14:38:25.831Z,17.05
2022-10-02T14:40:58.329Z,16.85
2022-10-02T14:43:55.233Z,16.75
2022-10-02T14:46:53.000Z,16.57
2022-10-02T14:50:03.900Z,16.42
2022-10-02T14:52:46.323Z,16.35
2022-10-02T14:55:49.510Z,16.43
2022-10-02T14:59:12.303Z,16.40
2022-10-02T15:02:09.072Z,16.29
2022-10-02T15:05:47.576Z,16.31
2022-10-02T15:08:49.118Z,16.20
2022-10-02T15:11:36.146Z,16.16
2022-10-02T15:14:51.638Z,16.05
2022-10-02T15:18:05.878Z,16.14
2022-10-02T15:20:59.636Z,16.01
2022-10-02T15:23:44.759Z,16.04
2022-10-02T15:26:53.420Z,15.96
2022-10-02T15:30:04.851Z,15.93
2022-10-02T15:33:00.005Z,15.91
2022-10-02T15:36:07.476Z,15.80
2022-10-02T15:39:19.816Z,15.73
2022-10-02T15:42:11.268Z,15.59
2022-10-02T15:45:17.404Z,15.70
2022-10-02T15:48:44.127Z,15.71
2022-10-02T15:51:53.812Z,15.57
2022-10-02T15:55:38.995Z,15.60
2022-10-02T15:58:50.428Z,15.43
2022-10-02T16:02:31.194Z,15.43
2022-10-02T16:05:58.468Z,15.42
2022-10-02T16:08:43.570Z,15.45
2022-10-02T16:11:26.636Z,15.43
2022-10-02T16:14:08.809Z,15.42
2022-10-02T16:17:07.307Z,15.34
2022-10-02T16:20:10.109Z,15.28
2022-10-02T16:23:04.022Z,15.21
2022-10-02T16:25:54.379Z,15.11
2022-10-02T16:28:51.954Z,15.20
2022-10-02T16:32:02.481Z,15.11
2022-10-02T16:35:22.471Z,15.12
2022-10-02T16:38:06.526Z,15.11
2022-10-02T16:41:12.850Z,15.02
2022-10-02T16:44:55.695Z,15.12
2022-10-02T16:48:29.518Z,15.01
2022-10-02T16:51:25.906Z,15.09
2022-10-02T16:54:40.530Z,15.07
2022-10-02T16:57:40.274Z,15.06
2022-10-02T17:00:26.636Z,15.03
2022-10-02T17:03:37.074Z,15.06
2022-10-02T17:06:28.396Z,14.99
2022-10-02T17:09:25.179Z,14.90
2022-10-02T17:12:58.083Z,14.89
2022-10-02T17:15:52.666Z,14.95
2022-10-02T17:18:58.007Z,14.86
2022-10-02T17:21:48.322Z,14.87
2022-10-02T17:24:55.601Z,14.87
2022-10-02T17:28:12.213Z,14.69
2022-10-02T17:31:15.521Z,14.81
2022-10-02T17:34:27.637Z,14.75
2022-10-02T17:37:41.562Z,14.71
2022-10-02T17:40:28.563Z,14.66
2022-10-02T17:43:37.328Z,14.69
2022-10-02T17:46:38.307Z,14.66
2022-10-02T17:49:47.536Z,14.61
2022-10-02T17:53:08.329Z,14.57
2022-10-02T17:56:22.567Z,14.70
2022-10-02T17:59:36.813Z,14.65
2022-10-02T18:03:01.174Z,14.61
2022-10-02T18:06:30.905Z,14.60
2022-10-02T18:09:33.559Z,14.49
2022-10-02T18:12:41.722Z,14.55
2022-10-02T18:16:08.801Z,14.56
2022-10-02T18:19:04.590Z,14.49
2022-10-02T18:21:57.026Z,14.46
2022-10-02T18:25:00.169Z,14.44
2022-10-02T18:27:56.094Z,14.48
2022-10-02T18:30:43.701Z,14.50
2022-10-02T18:33:26.354Z,14.50
2022-10-02T18:36:32.870Z,14.41
2022-10-02T18:39:20.071Z,14.42
2022-10-02T18:41:57.120Z,14.42
2022-10-02T18:45:12.984Z,14.41
2022-10-02T18:48:45.168Z,14.39
2022-10-02T18:51:40.693Z,14.39
2022-10-02T18:55:17.636Z,14.31
2022-10-02T18:58:32.041Z,14.35
2022-10-02T19:01:35.352Z,14.20
2022-10-02T19:04:19.655Z,14.32
2022-10-02T19:07:20.590Z,14.25
2022-10-02T19:10:12.225Z,14.36
2022-10-02T19:12:44.682Z,14.44
2022-10-02T19:15:33.652Z,14.40
2022-10-02T19:18:06.718Z,14.36
2022-10-02T19:21:08.485Z,14.37
2022-10-02T19:24:14.385Z,14.33
2022-10-02T19:26:50.943Z,14.26
2022-10-02T19:29:45.481Z,14.33
2022-10-02T19:32:43.300Z,14.26
2022-10-02T19:35:33.695Z,14.18
2022-10-02T19:38:34.064Z,13.93
2022-10-02T19:41:13.560Z,14.15
2022-10-02T19:44:07.210Z,14.12
2022-10-02T19:46:44.452Z,14.03
2022-10-02T19:49:52.781Z,14.03
2022-10-02T19:53:06.949Z,14.07
2022-10-02T19:55:42.242Z,14.11
2022-10-02T19:58:21.687Z,14.20
2022-10-02T20:00:54.302Z,14.09
2022-10-02T20:03:25.242Z,14.11
2022-10-02T20:06:06.531Z,14.20
2022-10-02T20:08:46.230Z,14.22
2022-10-02T20:11:40.266Z,14.21
2022-10-02T20:14:44.029Z,14.20
2022-10-02T20:17:17.805Z,14.25
2022-10-02T20:20:07.753Z,14.20
2022-10-02T20:22:49.627Z,14.18
2022-10-02T20:25:31.711Z,14.22
2022-10-02T20:28:22.882Z,14.21
2022-10-02T20:31:04.630Z,14.21
2022-10-02T20:33:42.531Z,14.20
2022-10-02T20:36:19.623Z,14.12
2022-10-02T20:39:07.099Z,14.21
2022-10-02T20:42:10.075Z,14.05
2022-10-02T20:44:39.178Z,14.11
2022-10-02T20:47:56.257Z,14.05
2022-10-02T20:50:49.577Z,14.13
2022-10-02T20:54:00.074Z,14.08
2022-10-02T20:56:42.554Z,14.11
2022-10-02T20:59:59.146Z,13.90
2022-10-02T21:02:59.771Z,13.96
2022-10-02T21:06:17.200Z,13.89
2022-10-02T21:10:01.269Z,13.83
2022-10-02T21:13:19.303Z,13.94
2022-10-02T21:16:10.959Z,13.96
2022-10-02T21:19:23.628Z,13.94
2022-10-02T21:22:24.707Z,13.87
2022-10-02T21:25:50.199Z,13.89
2022-10-02T21:29:15.585Z,13.95
2022-10-02T21:32:10.369Z,13.75
2022-10-02T21:35:32.343Z,13.78
2022-10-02T21:38:36.808Z,13.83
2022-10-02T21:41:48.551Z,13.83
2022-10-02T21:45:16.190Z,13.74
2022-10-02T21:48:45.057Z,13.72
2022-10-02T21:51:40.647Z,13.66
2022-10-02T21:54:52.964Z,13.73
2022-10-02T21:58:05.552Z,13.56
2022-10-02T22:00:58.614Z,13.55
2022-10-02T22:04:08.228Z,13.67
2022-10-02T22:07:13.280Z,13.67
2022-10-02T22:10:05.402Z,13.62
2022-10-02T22:13:23.377Z,13.70
2022-10-02T22:16:28.867Z,13.58
2022-10-02T22:19:43.581Z,13.51
2022-10-02T22:22:38.309Z,13.61
2022-10-02T22:25:43.403Z,13.56
2022-10-02T22:28:36.588Z,13.47
2022-10-02T22:31:35.298Z,13.46
2022-10-02T22:34:41.883Z,13.47
2022-10-02T22:38:26.222Z,13.38
2022-10-02T22:41:21.107Z,13.43
2022-10-02T22:44:16.628Z,13.46
2022-10-02T22:47:32.554Z,13.48
2022-10-02T22:50:19.784Z,13.50
2022-10-02T22:53:18.101Z,13.39
2022-10-02T22:55:55.854Z,13.42
2022-10-02T22:58:48.460Z,13.44
2022-10-02T23:01:37.936Z,13.45
2022-10-02T23:04:47.682Z,13.45
2022-10-02T23:07:34.822Z,13.51
2022-10-02T23:10:21.681Z,13.44
2022-10-02T23:13:22.243Z,13.34
2022-10-02T23:15:54.235Z,13.41
2022-10-02T23:18:34.720Z,13.37
2022-10-02T23:21:45.681Z,13.37
2022-10-02T23:24:31.265Z,13.31
2022-10-02T23:27:21.370Z,13.32
2022-10-02T23:29:58.059Z,13.35
2022-10-02T23:32:37.320Z,13.29
2022-10-02T23:35:14.907Z,13.37
2022-10-02T23:37:54.523Z,13.36
2022-10-02T23:41:39.566Z,13.31
2022-10-02T23:44:19.724Z,13.29
2022-10-02T23:47:34.875Z,13.18
2022-10-02T23:50:30.832Z,13.18
2022-10-02T23:53:49.024Z,13.17
2022-10-02T23:56:47.380Z,13.25
2022-10-02T23:59:51.943Z,13.37
